KLEW/LEW METAR and TAF weather

Enter ICAO airport designator
Station Type Date Time Source
KLEW METAR 2022/06/28 13:56 UTC NOAA

KLEW 281356Z AUTO 30010KT 10SM SCT037 21/12 A3008 RMK AO2 SLP190 T02110122


Station Type Date Time Source
KLEW Decoded METAR 2022/06/28 13:56 UTC NOAA

Auburn-Lewiston, ME, United States (KLEW) 44-03N 070-17W
Jun 28, 2022 - 09:56 AM EDT / 2022.06.28 1356 UTC
Wind: from the WNW (300 degrees) at 12 MPH (10 KT):0
Visibility: 10 mile(s):0
Sky conditions: partly cloudy
Temperature: 70.0 F (21.1 C)
Dew Point: 54.0 F (12.2 C)
Relative Humidity: 56%
Pressure (altimeter): 30.08 in. Hg (1018 hPa)
ob: KLEW 281356Z AUTO 30010KT 10SM SCT037 21/12 A3008 RMK AO2 SLP190 T02110122
cycle: 14

Station Type Date Time Source
KLEW TAF UTC NOAA

Error!

Example: see airport list